createdAt,value
2022-11-09T00:00:46.851Z,10.64
2022-11-09T00:01:48.279Z,10.65
2022-11-09T00:02:49.778Z,10.66
2022-11-09T00:03:55.038Z,10.67
2022-11-09T00:04:56.358Z,10.69
2022-11-09T00:05:58.612Z,10.70
2022-11-09T00:07:00.076Z,10.71
2022-11-09T00:08:01.439Z,10.72
2022-11-09T00:09:07.487Z,10.73
2022-11-09T00:10:09.520Z,10.76
2022-11-09T00:11:11.249Z,10.80
2022-11-09T00:12:12.732Z,10.83
2022-11-09T00:13:14.036Z,10.84
2022-11-09T00:14:18.200Z,10.84
2022-11-09T00:15:19.552Z,10.86
2022-11-09T00:16:21.355Z,10.88
2022-11-09T00:17:22.714Z,10.90
2022-11-09T00:18:24.128Z,10.90
2022-11-09T00:19:25.468Z,10.92
2022-11-09T00:20:26.768Z,10.95
2022-11-09T00:21:30.490Z,10.97
2022-11-09T00:22:31.874Z,10.99
2022-11-09T00:23:33.646Z,11.04
2022-11-09T00:24:34.985Z,11.02
2022-11-09T00:25:36.353Z,11.01
2022-11-09T00:26:37.656Z,11.04
2022-11-09T00:27:39.026Z,11.05
2022-11-09T00:28:40.350Z,11.08
2022-11-09T00:29:41.708Z,11.09
2022-11-09T00:30:44.246Z,11.08
2022-11-09T00:31:45.612Z,11.09
2022-11-09T00:32:48.607Z,11.10
2022-11-09T00:33:50.955Z,11.11
2022-11-09T00:34:52.300Z,11.12
2022-11-09T00:35:53.843Z,11.15
2022-11-09T00:36:55.169Z,11.18
2022-11-09T00:37:56.599Z,11.18
2022-11-09T00:38:59.207Z,11.17
2022-11-09T00:40:00.548Z,11.19
2022-11-09T00:41:02.655Z,11.23
2022-11-09T00:42:06.340Z,11.24
2022-11-09T00:43:07.711Z,11.23
2022-11-09T00:44:09.044Z,11.22
2022-11-09T00:45:10.638Z,11.24
2022-11-09T00:46:12.093Z,11.25
2022-11-09T00:47:13.816Z,11.30
2022-11-09T00:48:15.176Z,11.29
2022-11-09T00:49:16.740Z,11.27
2022-11-09T00:50:18.086Z,11.30
2022-11-09T00:51:19.491Z,11.38
2022-11-09T00:52:20.840Z,11.36
2022-11-09T00:53:22.705Z,11.37
2022-11-09T00:54:24.386Z,11.36
2022-11-09T00:55:26.358Z,11.37
2022-11-09T00:56:27.712Z,11.37
2022-11-09T00:57:29.133Z,11.38
2022-11-09T00:58:31.426Z,11.38
2022-11-09T00:59:32.756Z,11.40
2022-11-09T01:00:34.070Z,11.37
2022-11-09T01:01:35.535Z,11.36
2022-11-09T01:02:39.445Z,11.35
2022-11-09T01:03:41.149Z,11.33
2022-11-09T01:04:42.615Z,11.33
2022-11-09T01:05:43.994Z,11.37
2022-11-09T01:06:45.464Z,11.36
2022-11-09T01:07:46.918Z,11.34
2022-11-09T01:08:48.637Z,11.36
2022-11-09T01:09:50.010Z,11.37
2022-11-09T01:10:51.338Z,11.36
2022-11-09T01:11:52.717Z,11.35
2022-11-09T01:12:56.545Z,11.34
2022-11-09T01:14:01.097Z,11.36
2022-11-09T01:15:03.704Z,11.38
2022-11-09T01:16:06.657Z,11.42
2022-11-09T01:17:10.577Z,11.46
2022-11-09T01:18:12.254Z,11.46
2022-11-09T01:19:13.877Z,11.46
2022-11-09T01:20:15.628Z,11.43
2022-11-09T01:21:16.939Z,11.41
2022-11-09T01:22:18.584Z,11.40
2022-11-09T01:23:20.143Z,11.44
2022-11-09T01:24:21.879Z,11.44
2022-11-09T01:25:23.213Z,11.42
2022-11-09T01:26:24.581Z,11.41
2022-11-09T01:27:26.072Z,11.39
2022-11-09T01:28:27.536Z,11.39
2022-11-09T01:29:29.725Z,11.38
2022-11-09T01:30:33.104Z,11.38
2022-11-09T01:31:34.438Z,11.38
2022-11-09T01:32:36.767Z,11.38
2022-11-09T01:33:40.569Z,11.37
2022-11-09T01:34:41.882Z,11.41
2022-11-09T01:35:43.222Z,11.39
2022-11-09T01:36:44.569Z,11.40
2022-11-09T01:37:45.895Z,11.38
2022-11-09T01:38:47.753Z,11.37
2022-11-09T01:39:49.079Z,11.36
2022-11-09T01:40:50.421Z,11.36
2022-11-09T01:41:51.752Z,11.38
2022-11-09T01:42:53.218Z,11.38
2022-11-09T01:44:06.738Z,11.39
2022-11-09T01:45:14.127Z,11.37
2022-11-09T01:46:24.839Z,11.35
2022-11-09T01:47:26.162Z,11.35
2022-11-09T01:48:27.444Z,11.34
2022-11-09T01:49:28.772Z,11.31
2022-11-09T01:50:34.015Z,11.30
2022-11-09T01:51:39.654Z,11.27
2022-11-09T01:52:44.556Z,11.23
2022-11-09T01:53:47.712Z,11.22
2022-11-09T01:54:55.074Z,11.19
2022-11-09T01:55:58.637Z,11.19
2022-11-09T01:57:02.751Z,11.18
2022-11-09T01:58:07.336Z,11.17
2022-11-09T01:59:11.471Z,11.14
2022-11-09T02:00:14.263Z,11.12
2022-11-09T02:01:17.605Z,11.12
2022-11-09T02:02:19.685Z,11.11
2022-11-09T02:03:24.062Z,11.12
2022-11-09T02:04:28.765Z,11.13
2022-11-09T02:05:32.705Z,11.11
2022-11-09T02:06:35.486Z,11.09
2022-11-09T02:07:37.644Z,11.06
2022-11-09T02:08:39.512Z,11.04
2022-11-09T02:09:45.483Z,11.03
2022-11-09T02:10:52.586Z,11.01
2022-11-09T02:11:54.058Z,10.97
2022-11-09T02:12:56.466Z,10.96
2022-11-09T02:14:00.463Z,10.96
2022-11-09T02:15:06.801Z,10.93
2022-11-09T02:16:09.359Z,10.89
2022-11-09T02:17:12.218Z,10.87
2022-11-09T02:18:13.867Z,10.84
2022-11-09T02:19:15.468Z,10.82
2022-11-09T02:20:16.979Z,10.82
2022-11-09T02:21:18.744Z,10.80
2022-11-09T02:22:20.146Z,10.82
2022-11-09T02:23:21.912Z,10.80
2022-11-09T02:24:23.512Z,10.80
2022-11-09T02:25:24.873Z,10.80
2022-11-09T02:26:35.718Z,10.80
2022-11-09T02:27:37.390Z,10.80
2022-11-09T02:28:39.333Z,10.81
2022-11-09T02:29:43.889Z,10.81
2022-11-09T02:30:48.178Z,10.82
2022-11-09T02:31:53.344Z,10.82
2022-11-09T02:32:54.777Z,10.84
2022-11-09T02:34:02.089Z,10.86
2022-11-09T02:35:03.667Z,10.86
2022-11-09T02:36:05.160Z,10.86
2022-11-09T02:37:06.471Z,10.88
2022-11-09T02:38:11.640Z,10.87
2022-11-09T02:39:14.438Z,10.87
2022-11-09T02:40:22.435Z,10.89
2022-11-09T02:41:24.011Z,10.89
2022-11-09T02:42:25.585Z,10.90
2022-11-09T02:43:26.927Z,10.90
2022-11-09T02:44:29.597Z,10.91
2022-11-09T02:45:31.097Z,10.91
2022-11-09T02:46:33.756Z,10.91
2022-11-09T02:47:35.495Z,10.93
2022-11-09T02:48:36.844Z,10.94
2022-11-09T02:49:38.197Z,10.95
2022-11-09T02:50:39.517Z,10.95
2022-11-09T02:51:40.853Z,10.95
2022-11-09T02:52:42.200Z,10.96
2022-11-09T02:53:43.788Z,10.97
2022-11-09T02:54:45.625Z,10.99
2022-11-09T02:55:47.114Z,11.01
2022-11-09T02:56:48.725Z,11.01
2022-11-09T02:57:50.741Z,11.03
2022-11-09T02:58:53.468Z,11.04
2022-11-09T02:59:54.797Z,11.05
2022-11-09T03:00:56.265Z,11.06
2022-11-09T03:01:59.158Z,11.07
2022-11-09T03:03:04.224Z,11.08
2022-11-09T03:04:05.802Z,11.10
2022-11-09T03:05:07.986Z,11.10
2022-11-09T03:06:10.325Z,11.10
2022-11-09T03:07:12.090Z,11.10
2022-11-09T03:08:14.176Z,11.13
2022-11-09T03:09:15.610Z,11.13
2022-11-09T03:10:17.025Z,11.13
2022-11-09T03:11:18.502Z,11.15
2022-11-09T03:12:20.406Z,11.17
2022-11-09T03:13:22.178Z,11.16
2022-11-09T03:14:23.869Z,11.14
2022-11-09T03:15:29.292Z,11.14
2022-11-09T03:16:30.736Z,11.13
2022-11-09T03:17:32.947Z,11.11
2022-11-09T03:18:34.904Z,11.09
2022-11-09T03:19:36.393Z,11.09
2022-11-09T03:20:37.892Z,11.09
2022-11-09T03:21:39.237Z,11.06
2022-11-09T03:22:40.654Z,11.04
2022-11-09T03:23:43.026Z,11.01
2022-11-09T03:24:44.406Z,11.02
2022-11-09T03:25:46.378Z,11.05
2022-11-09T03:26:47.737Z,11.09
2022-11-09T03:27:49.265Z,11.11
2022-11-09T03:28:50.626Z,11.07
2022-11-09T03:29:52.081Z,11.03
2022-11-09T03:30:54.388Z,11.03
2022-11-09T03:31:55.907Z,11.08
2022-11-09T03:33:00.838Z,11.10
2022-11-09T03:34:02.403Z,11.07
2022-11-09T03:35:03.870Z,11.05
2022-11-09T03:36:05.794Z,11.01
2022-11-09T03:37:07.125Z,11.02
2022-11-09T03:38:08.576Z,11.00
2022-11-09T03:39:10.672Z,10.97
2022-11-09T03:40:12.112Z,10.97
2022-11-09T03:41:13.532Z,10.99
2022-11-09T03:42:15.156Z,10.98
2022-11-09T03:43:16.733Z,10.97
2022-11-09T03:44:19.431Z,10.98
2022-11-09T03:45:21.083Z,10.97
2022-11-09T03:46:22.479Z,10.98
2022-11-09T03:47:23.890Z,11.03
2022-11-09T03:48:25.231Z,11.03
2022-11-09T03:49:26.589Z,11.03
2022-11-09T03:50:29.081Z,11.00
2022-11-09T03:51:30.452Z,10.97
2022-11-09T03:52:31.821Z,10.95
2022-11-09T03:53:33.176Z,10.92
2022-11-09T03:54:34.563Z,10.90
2022-11-09T03:55:36.097Z,10.89
2022-11-09T03:56:38.291Z,10.89
2022-11-09T03:57:39.633Z,10.91
2022-11-09T03:58:41.001Z,10.91
2022-11-09T03:59:42.341Z,10.94
2022-11-09T04:00:44.093Z,10.94
2022-11-09T04:01:45.556Z,10.94
2022-11-09T04:02:47.107Z,10.93
2022-11-09T04:03:48.417Z,10.94
2022-11-09T04:04:49.803Z,10.95
2022-11-09T04:05:51.153Z,10.96
2022-11-09T04:06:52.531Z,10.96
2022-11-09T04:07:55.564Z,10.98
2022-11-09T04:08:56.941Z,10.99
2022-11-09T04:09:58.257Z,10.99
2022-11-09T04:10:59.588Z,10.99
2022-11-09T04:12:00.966Z,11.00
2022-11-09T04:13:02.271Z,11.02
2022-11-09T04:14:03.656Z,11.04
2022-11-09T04:15:05.279Z,11.05
2022-11-09T04:16:06.721Z,11.04
2022-11-09T04:17:08.098Z,11.02
2022-11-09T04:18:11.992Z,11.05
2022-11-09T04:19:13.376Z,11.02
2022-11-09T04:20:14.741Z,11.03
2022-11-09T04:21:19.148Z,11.03
2022-11-09T04:22:24.226Z,11.02
2022-11-09T04:23:25.677Z,11.02
2022-11-09T04:24:27.041Z,11.01
2022-11-09T04:25:31.387Z,11.02
2022-11-09T04:26:32.797Z,11.01
2022-11-09T04:27:34.132Z,11.03
2022-11-09T04:28:35.475Z,11.02
2022-11-09T04:29:36.821Z,11.05
2022-11-09T04:30:38.205Z,11.06
2022-11-09T04:31:40.000Z,11.03
2022-11-09T04:32:41.350Z,11.05
2022-11-09T04:33:42.798Z,11.05
2022-11-09T04:34:44.186Z,11.04
2022-11-09T04:35:45.526Z,11.04
2022-11-09T04:36:46.885Z,11.05
2022-11-09T04:37:58.335Z,11.07
2022-11-09T04:38:59.761Z,11.08
2022-11-09T04:40:01.120Z,11.08
2022-11-09T04:41:03.885Z,11.11
2022-11-09T04:42:05.260Z,11.16
2022-11-09T04:43:07.733Z,11.12
2022-11-09T04:44:09.258Z,11.11
2022-11-09T04:45:10.706Z,11.10
2022-11-09T04:46:12.158Z,11.10
2022-11-09T04:47:13.522Z,11.08
2022-11-09T04:48:14.843Z,11.07
2022-11-09T04:49:16.197Z,11.05
2022-11-09T04:50:17.558Z,11.04
2022-11-09T04:51:19.021Z,11.01
2022-11-09T04:52:20.620Z,10.97
2022-11-09T04:53:22.366Z,10.96
2022-11-09T04:54:23.947Z,10.97
2022-11-09T04:55:25.390Z,10.95
2022-11-09T04:56:26.779Z,10.98
2022-11-09T04:57:28.084Z,10.97
2022-11-09T04:58:29.920Z,10.97
2022-11-09T04:59:31.496Z,10.97
2022-11-09T05:00:33.346Z,10.95
2022-11-09T05:01:34.698Z,10.96
2022-11-09T05:02:36.159Z,10.96
2022-11-09T05:03:37.654Z,10.99
2022-11-09T05:04:39.070Z,10.97
2022-11-09T05:05:44.134Z,10.98
2022-11-09T05:06:49.490Z,11.01
2022-11-09T05:07:53.988Z,11.03
2022-11-09T05:08:55.854Z,11.02
2022-11-09T05:09:57.297Z,11.04
2022-11-09T05:11:00.150Z,11.03
2022-11-09T05:12:01.621Z,11.08
2022-11-09T05:13:04.550Z,11.08
2022-11-09T05:14:07.415Z,11.05
2022-11-09T05:15:09.014Z,11.01
2022-11-09T05:16:10.652Z,11.03
2022-11-09T05:17:14.457Z,11.01
2022-11-09T05:18:15.844Z,10.97
2022-11-09T05:19:17.208Z,10.94
2022-11-09T05:20:18.648Z,10.96
2022-11-09T05:21:20.023Z,10.98
2022-11-09T05:22:21.552Z,10.94
2022-11-09T05:23:23.403Z,10.92
2022-11-09T05:24:25.003Z,10.91
2022-11-09T05:25:26.384Z,10.96
2022-11-09T05:26:32.126Z,10.98
2022-11-09T05:27:33.490Z,10.97
2022-11-09T05:28:34.824Z,11.01
2022-11-09T05:29:36.199Z,10.96
2022-11-09T05:30:37.740Z,10.95
2022-11-09T05:31:39.677Z,10.95
2022-11-09T05:32:48.561Z,10.95
2022-11-09T05:33:50.645Z,10.92
2022-11-09T05:34:57.413Z,10.91
2022-11-09T05:35:58.894Z,10.91
2022-11-09T05:37:03.555Z,11.01
2022-11-09T05:38:05.661Z,10.97
2022-11-09T05:39:07.283Z,10.96
2022-11-09T05:40:09.246Z,10.96
2022-11-09T05:41:10.651Z,10.94
2022-11-09T05:42:11.966Z,10.92
2022-11-09T05:43:13.317Z,10.95
2022-11-09T05:44:14.655Z,10.99
2022-11-09T05:46:38.692Z,10.96
2022-11-09T05:47:40.857Z,10.95
2022-11-09T05:48:42.800Z,10.95
2022-11-09T05:49:44.108Z,11.01
2022-11-09T05:50:45.558Z,11.05
2022-11-09T05:51:55.272Z,10.99
2022-11-09T05:52:58.460Z,10.97
2022-11-09T05:53:59.792Z,10.95
2022-11-09T05:55:01.449Z,10.95
2022-11-09T05:56:07.024Z,10.93
2022-11-09T05:57:08.519Z,10.92
2022-11-09T05:58:10.045Z,10.92
2022-11-09T05:59:11.340Z,10.91
2022-11-09T06:00:13.029Z,10.95
2022-11-09T06:01:15.613Z,10.95
2022-11-09T06:02:17.024Z,10.94
2022-11-09T06:03:18.755Z,10.93
2022-11-09T06:04:20.418Z,10.92
2022-11-09T06:05:21.729Z,10.92
2022-11-09T06:06:23.446Z,10.92
2022-11-09T06:07:24.765Z,10.93
2022-11-09T06:08:26.070Z,10.94
2022-11-09T06:09:27.891Z,10.93
2022-11-09T06:10:29.216Z,10.91
2022-11-09T06:11:30.707Z,10.95
2022-11-09T06:12:34.582Z,10.95
2022-11-09T06:13:36.793Z,10.95
2022-11-09T06:14:41.548Z,10.94
2022-11-09T06:15:42.936Z,10.94
2022-11-09T06:16:44.291Z,10.97
2022-11-09T06:17:50.663Z,10.96
2022-11-09T06:18:52.011Z,10.96
2022-11-09T06:19:53.352Z,10.95
2022-11-09T06:20:55.844Z,10.95
2022-11-09T06:21:57.161Z,10.96
2022-11-09T06:23:03.936Z,10.95
2022-11-09T06:24:05.889Z,10.96
2022-11-09T06:25:07.397Z,10.98
2022-11-09T06:26:10.113Z,10.97
2022-11-09T06:27:11.506Z,10.97
2022-11-09T06:28:12.830Z,10.97
2022-11-09T06:29:14.164Z,11.01
2022-11-09T06:30:15.835Z,10.99
2022-11-09T06:31:17.214Z,10.98
2022-11-09T06:32:18.593Z,10.99
2022-11-09T06:33:20.123Z,10.99
2022-11-09T06:34:21.975Z,11.00
2022-11-09T06:35:23.286Z,10.98
2022-11-09T06:36:24.621Z,11.02
2022-11-09T06:37:25.949Z,11.04
2022-11-09T06:38:27.806Z,11.05
2022-11-09T06:39:29.431Z,11.05
2022-11-09T06:40:33.301Z,11.04
2022-11-09T06:41:34.874Z,11.04
2022-11-09T06:42:38.286Z,11.04
2022-11-09T06:43:40.274Z,11.06
2022-11-09T06:44:41.616Z,11.07
2022-11-09T06:45:42.970Z,11.06
2022-11-09T06:46:44.268Z,11.06
2022-11-09T06:47:45.599Z,11.05
2022-11-09T06:48:51.878Z,11.03
2022-11-09T06:49:55.663Z,11.04
2022-11-09T06:51:00.566Z,11.02
2022-11-09T06:52:01.971Z,11.03
2022-11-09T06:53:04.941Z,11.02
2022-11-09T06:54:06.275Z,11.04
2022-11-09T06:55:11.208Z,11.03
2022-11-09T06:56:12.566Z,11.01
2022-11-09T06:57:13.986Z,11.00
2022-11-09T06:58:15.566Z,11.01
2022-11-09T06:59:16.961Z,11.00
2022-11-09T07:00:19.110Z,11.01
2022-11-09T07:01:21.515Z,11.01
2022-11-09T07:02:30.642Z,11.00
2022-11-09T07:03:32.031Z,11.01
2022-11-09T07:04:33.439Z,11.01
2022-11-09T07:05:37.919Z,11.01
2022-11-09T07:06:40.113Z,11.03
2022-11-09T07:07:41.496Z,11.07
2022-11-09T07:08:42.834Z,11.09
2022-11-09T07:09:44.140Z,11.10
2022-11-09T07:10:45.549Z,11.09
2022-11-09T07:11:48.628Z,11.03
2022-11-09T07:12:49.926Z,11.03
2022-11-09T07:13:56.177Z,11.02
2022-11-09T07:14:58.669Z,11.01
2022-11-09T07:15:59.983Z,10.99
2022-11-09T07:17:01.375Z,10.97
2022-11-09T07:18:03.862Z,10.98
2022-11-09T07:19:05.176Z,10.96
2022-11-09T07:20:07.826Z,10.97
2022-11-09T07:21:14.119Z,10.97
2022-11-09T07:22:15.733Z,10.98
2022-11-09T07:23:17.694Z,10.99
2022-11-09T07:24:19.326Z,10.99
2022-11-09T07:25:20.847Z,10.98
2022-11-09T07:26:22.211Z,10.98
2022-11-09T07:27:27.536Z,10.99
2022-11-09T07:28:29.620Z,11.01
2022-11-09T07:29:30.951Z,11.02
2022-11-09T07:30:32.339Z,11.03
2022-11-09T07:31:33.651Z,11.05
2022-11-09T07:33:06.763Z,11.09
2022-11-09T07:33:57.160Z,11.11
2022-11-09T07:34:58.514Z,11.12
2022-11-09T07:36:00.700Z,11.13
2022-11-09T07:37:02.046Z,11.15
2022-11-09T07:38:03.353Z,11.17
2022-11-09T07:39:05.239Z,11.19
2022-11-09T07:40:06.991Z,11.20
2022-11-09T07:41:08.285Z,11.20
2022-11-09T07:42:09.611Z,11.22
2022-11-09T07:43:15.348Z,11.24
2022-11-09T07:44:17.322Z,11.27
2022-11-09T07:45:18.692Z,11.26
2022-11-09T07:46:20.101Z,11.30
2022-11-09T07:47:21.481Z,11.33
2022-11-09T07:48:22.865Z,11.34
2022-11-09T07:49:24.217Z,11.35
2022-11-09T07:50:25.789Z,11.41
2022-11-09T07:51:27.133Z,11.40
2022-11-09T07:52:28.470Z,11.40
2022-11-09T07:53:29.831Z,11.42
2022-11-09T07:54:31.220Z,11.42
2022-11-09T07:55:32.741Z,11.44
2022-11-09T07:56:34.271Z,11.45
2022-11-09T07:57:35.642Z,11.45
2022-11-09T07:58:37.020Z,11.45
2022-11-09T07:59:38.326Z,11.49
2022-11-09T08:00:40.296Z,11.49
2022-11-09T08:01:41.697Z,11.48
2022-11-09T08:02:43.039Z,11.49
2022-11-09T08:03:44.339Z,11.50
2022-11-09T08:04:45.656Z,11.52
2022-11-09T08:05:47.468Z,11.54
2022-11-09T08:06:51.411Z,11.54
2022-11-09T08:07:56.719Z,11.53
2022-11-09T08:08:58.029Z,11.60
2022-11-09T08:09:59.364Z,11.63
2022-11-09T08:11:00.743Z,11.63
2022-11-09T08:12:02.095Z,11.64
2022-11-09T08:13:05.032Z,11.68
2022-11-09T08:14:06.332Z,11.67
2022-11-09T08:15:07.957Z,11.68
2022-11-09T08:16:09.274Z,11.72
2022-11-09T08:17:10.574Z,11.74
2022-11-09T08:18:13.291Z,11.77
2022-11-09T08:19:14.863Z,11.80
2022-11-09T08:20:16.463Z,11.80
2022-11-09T08:21:18.451Z,11.83
2022-11-09T08:22:19.765Z,11.84
2022-11-09T08:23:21.515Z,11.85
2022-11-09T08:24:23.183Z,11.85
2022-11-09T08:25:24.535Z,11.88
2022-11-09T08:26:25.862Z,11.90
2022-11-09T08:27:30.064Z,11.94
2022-11-09T08:28:31.938Z,11.95
2022-11-09T08:29:33.229Z,11.95
2022-11-09T08:30:34.621Z,11.96
2022-11-09T08:31:35.936Z,11.99
2022-11-09T08:32:37.247Z,11.98
2022-11-09T08:33:40.036Z,11.98
2022-11-09T08:34:41.357Z,11.99
2022-11-09T08:35:42.685Z,11.99
2022-11-09T08:36:44.004Z,12.00
2022-11-09T08:37:45.771Z,12.00
2022-11-09T08:38:47.141Z,11.97
2022-11-09T08:39:48.464Z,11.97
2022-11-09T08:40:49.821Z,11.96
2022-11-09T08:41:51.149Z,11.98
2022-11-09T08:42:52.510Z,12.00
2022-11-09T08:43:53.924Z,12.04
2022-11-09T08:44:55.344Z,12.02
2022-11-09T08:45:56.687Z,12.01
2022-11-09T08:46:58.046Z,12.00
2022-11-09T08:47:59.900Z,12.03
2022-11-09T08:49:01.275Z,12.04
2022-11-09T08:50:03.720Z,12.06
2022-11-09T08:51:05.084Z,12.06
2022-11-09T08:52:06.395Z,12.10
2022-11-09T08:53:07.813Z,12.09
2022-11-09T08:54:09.155Z,12.11
2022-11-09T08:55:10.524Z,12.15
2022-11-09T08:56:11.882Z,12.20
2022-11-09T08:57:13.221Z,12.20
2022-11-09T08:58:14.796Z,12.22
2022-11-09T08:59:16.138Z,12.24
2022-11-09T09:00:17.612Z,12.28
2022-11-09T09:01:19.059Z,12.30
2022-11-09T09:02:21.584Z,12.35
2022-11-09T09:03:23.064Z,12.33
2022-11-09T09:04:24.761Z,12.34
2022-11-09T09:05:26.141Z,12.33
2022-11-09T09:06:31.072Z,12.35
2022-11-09T09:07:32.921Z,12.34
2022-11-09T09:08:34.288Z,12.34
2022-11-09T09:09:35.686Z,12.36
2022-11-09T09:10:37.063Z,12.37
2022-11-09T09:11:38.426Z,12.38
2022-11-09T09:12:39.760Z,12.38
2022-11-09T09:13:43.533Z,12.36
2022-11-09T09:14:45.129Z,12.38
2022-11-09T09:15:46.496Z,12.41
2022-11-09T09:16:47.780Z,12.41
2022-11-09T09:17:49.124Z,12.46
2022-11-09T09:18:50.431Z,12.46
2022-11-09T09:19:51.773Z,12.49
2022-11-09T09:20:53.075Z,12.51
2022-11-09T09:21:54.933Z,12.53
2022-11-09T09:22:59.862Z,12.51
2022-11-09T09:24:01.235Z,12.57
2022-11-09T09:25:02.693Z,12.57
2022-11-09T09:26:04.022Z,12.62
2022-11-09T09:27:05.375Z,12.62
2022-11-09T09:28:06.693Z,12.58
2022-11-09T09:29:08.018Z,12.65
2022-11-09T09:30:09.553Z,12.63
2022-11-09T09:31:14.311Z,12.66
2022-11-09T09:32:19.490Z,12.64
2022-11-09T09:33:20.834Z,12.58
2022-11-09T09:34:22.134Z,12.62
2022-11-09T09:35:23.493Z,12.61
2022-11-09T09:36:24.971Z,12.63
2022-11-09T09:37:26.351Z,12.61
2022-11-09T09:38:28.431Z,12.64
2022-11-09T09:39:29.778Z,12.67
2022-11-09T09:40:31.091Z,12.66
2022-11-09T09:41:35.250Z,12.71
2022-11-09T09:42:37.731Z,12.75
2022-11-09T09:43:43.938Z,12.82
2022-11-09T09:44:45.405Z,12.84
2022-11-09T09:45:51.294Z,12.87
2022-11-09T09:47:05.321Z,12.90
2022-11-09T09:48:06.635Z,12.96
2022-11-09T09:49:13.179Z,12.99
2022-11-09T09:50:18.885Z,13.09
2022-11-09T09:51:28.576Z,13.08
2022-11-09T09:52:50.659Z,13.13
2022-11-09T09:54:05.603Z,13.15
2022-11-09T09:55:18.999Z,13.20
2022-11-09T09:56:34.340Z,13.21
2022-11-09T09:57:41.515Z,13.27
2022-11-09T09:58:51.629Z,13.35
2022-11-09T09:59:54.728Z,13.36
2022-11-09T10:00:58.248Z,13.40
2022-11-09T10:01:59.618Z,13.46
2022-11-09T10:03:01.253Z,13.52
2022-11-09T10:04:02.787Z,13.54
2022-11-09T10:05:08.750Z,13.54
2022-11-09T10:06:16.109Z,13.60
2022-11-09T10:07:30.594Z,13.64
2022-11-09T10:08:44.015Z,13.67
2022-11-09T10:09:54.413Z,13.72
2022-11-09T10:11:13.993Z,13.73
2022-11-09T10:12:26.566Z,13.76
2022-11-09T10:13:27.880Z,13.78
2022-11-09T10:14:47.427Z,13.75
2022-11-09T10:15:54.770Z,13.79
2022-11-09T10:17:12.042Z,13.81
2022-11-09T10:18:19.607Z,13.82
2022-11-09T10:19:23.956Z,13.85
2022-11-09T10:20:36.914Z,13.91
2022-11-09T10:21:41.319Z,13.92
2022-11-09T10:22:57.872Z,13.93
2022-11-09T10:24:06.026Z,13.96
2022-11-09T10:25:50.253Z,14.02
2022-11-09T10:26:52.728Z,14.09
2022-11-09T10:27:58.759Z,14.07
2022-11-09T10:29:15.492Z,14.11
2022-11-09T10:30:19.002Z,14.16
2022-11-09T10:31:21.363Z,14.18
2022-11-09T10:32:23.576Z,14.15
2022-11-09T10:33:26.593Z,14.17
2022-11-09T10:34:29.859Z,14.26
2022-11-09T10:35:35.169Z,14.28
2022-11-09T10:36:39.293Z,14.31
2022-11-09T10:37:44.773Z,14.35
2022-11-09T10:38:49.588Z,14.36
2022-11-09T10:40:22.291Z,14.36
2022-11-09T10:41:43.885Z,14.36
2022-11-09T10:43:14.416Z,14.33
2022-11-09T10:44:34.617Z,14.37
2022-11-09T10:45:59.908Z,14.42
2022-11-09T10:47:20.024Z,14.45
2022-11-09T10:48:40.235Z,14.40
2022-11-09T10:50:20.981Z,14.45
2022-11-09T10:51:42.618Z,14.44
2022-11-09T10:53:22.935Z,14.47
2022-11-09T10:54:42.680Z,14.48
2022-11-09T10:56:02.583Z,14.49
2022-11-09T10:57:23.851Z,14.52
2022-11-09T10:58:48.328Z,14.59
2022-11-09T11:00:16.331Z,14.59
2022-11-09T11:01:36.831Z,14.65
2022-11-09T11:02:56.612Z,14.69
2022-11-09T11:04:21.357Z,14.71
2022-11-09T11:05:41.147Z,14.77
2022-11-09T11:07:15.827Z,14.82
2022-11-09T11:08:40.618Z,14.86
2022-11-09T11:10:15.652Z,14.90
2022-11-09T11:11:37.559Z,14.93
2022-11-09T11:13:18.159Z,14.93
2022-11-09T11:14:42.649Z,15.00
2022-11-09T11:16:13.377Z,14.98
2022-11-09T11:17:36.553Z,14.98
2022-11-09T11:18:56.594Z,14.93
2022-11-09T11:20:25.807Z,14.97
2022-11-09T11:21:45.521Z,14.99
2022-11-09T11:23:10.515Z,15.04
2022-11-09T11:24:40.343Z,15.00
2022-11-09T11:26:11.992Z,15.05
2022-11-09T11:27:36.205Z,15.06
2022-11-09T11:28:59.716Z,15.06
2022-11-09T11:30:20.925Z,15.09
2022-11-09T11:31:40.616Z,15.09
2022-11-09T11:33:00.477Z,15.15
2022-11-09T11:34:45.597Z,15.18
2022-11-09T11:36:06.782Z,15.26
2022-11-09T11:37:26.628Z,15.30
2022-11-09T11:39:05.074Z,15.38
2022-11-09T11:40:24.965Z,15.40
2022-11-09T11:41:56.278Z,15.46
2022-11-09T11:43:28.405Z,15.46
2022-11-09T11:44:59.452Z,15.43
2022-11-09T11:46:27.159Z,15.35
2022-11-09T11:47:56.659Z,15.30
2022-11-09T11:49:19.501Z,15.29
2022-11-09T11:50:43.030Z,15.33
2022-11-09T11:52:12.163Z,15.35
2022-11-09T11:53:58.224Z,15.36
2022-11-09T11:55:36.909Z,15.33
2022-11-09T11:56:56.847Z,15.35
2022-11-09T11:58:40.110Z,15.37
2022-11-09T12:00:08.788Z,15.37
2022-11-09T12:01:28.591Z,15.42
2022-11-09T12:02:48.423Z,15.48
2022-11-09T12:04:20.281Z,15.44
2022-11-09T12:05:40.072Z,15.44
2022-11-09T12:07:26.099Z,15.41
2022-11-09T12:09:09.681Z,15.41
2022-11-09T12:10:45.969Z,15.43
2022-11-09T12:12:15.064Z,15.46
2022-11-09T12:13:44.489Z,15.45
2022-11-09T12:15:07.112Z,15.44
2022-11-09T12:16:45.381Z,15.41
2022-11-09T12:18:05.241Z,15.43
2022-11-09T12:19:37.116Z,15.44
2022-11-09T12:21:10.738Z,15.45
2022-11-09T12:22:47.529Z,15.46
2022-11-09T12:24:23.648Z,15.43
2022-11-09T12:25:52.809Z,15.35
2022-11-09T12:27:33.298Z,15.35
2022-11-09T12:29:02.597Z,15.38
2022-11-09T12:30:24.125Z,15.34
2022-11-09T12:32:02.975Z,15.32
2022-11-09T12:33:33.313Z,15.32
2022-11-09T12:35:04.006Z,15.36
2022-11-09T12:36:36.647Z,15.38
2022-11-09T12:38:08.252Z,15.35
2022-11-09T12:39:27.994Z,15.34
2022-11-09T12:40:50.587Z,15.35
2022-11-09T12:42:13.645Z,15.34
2022-11-09T12:43:36.821Z,15.32
2022-11-09T12:44:56.529Z,15.27
2022-11-09T12:46:18.260Z,15.24
2022-11-09T12:47:41.543Z,15.26
2022-11-09T12:49:03.020Z,15.28
2022-11-09T12:50:24.146Z,15.29
2022-11-09T12:51:44.076Z,15.33
2022-11-09T12:53:04.906Z,15.36
2022-11-09T12:54:25.259Z,15.39
2022-11-09T12:55:57.321Z,15.35
2022-11-09T12:57:21.955Z,15.31
2022-11-09T12:58:42.204Z,15.28
2022-11-09T13:00:02.004Z,15.23
2022-11-09T13:01:34.042Z,15.26
2022-11-09T13:02:55.937Z,15.30
2022-11-09T13:04:17.468Z,15.34
2022-11-09T13:05:38.362Z,15.34
2022-11-09T13:07:04.191Z,15.35
2022-11-09T13:08:26.411Z,15.41
2022-11-09T13:09:52.821Z,15.40
2022-11-09T13:11:31.596Z,15.41
2022-11-09T13:13:01.576Z,15.44
2022-11-09T13:14:21.658Z,15.42
2022-11-09T13:16:00.543Z,15.43
2022-11-09T13:17:23.537Z,15.44
2022-11-09T13:18:45.573Z,15.45
2022-11-09T13:20:52.750Z,15.47
2022-11-09T13:22:04.300Z,15.44
2022-11-09T13:23:41.519Z,15.42
2022-11-09T13:25:24.354Z,15.45
2022-11-09T13:26:47.515Z,15.46
2022-11-09T13:28:27.390Z,15.40
2022-11-09T13:29:52.302Z,15.41
2022-11-09T13:31:35.953Z,15.39
2022-11-09T13:33:08.224Z,15.42
2022-11-09T13:34:40.891Z,15.42
2022-11-09T13:36:03.885Z,15.41
2022-11-09T13:37:42.000Z,15.44
2022-11-09T13:39:20.903Z,15.44
2022-11-09T13:40:42.413Z,15.46
2022-11-09T13:42:02.490Z,15.46
2022-11-09T13:43:32.941Z,15.46
2022-11-09T13:44:53.325Z,15.48
2022-11-09T13:46:24.563Z,15.48
2022-11-09T13:47:51.660Z,15.49
2022-11-09T13:49:38.122Z,15.49
2022-11-09T13:50:59.628Z,15.44
2022-11-09T13:52:38.697Z,15.41
2022-11-09T13:53:59.660Z,15.43
2022-11-09T13:55:24.357Z,15.42
2022-11-09T13:56:44.521Z,15.42
2022-11-09T13:58:23.655Z,15.41
2022-11-09T13:59:49.194Z,15.42
2022-11-09T14:01:25.820Z,15.44
2022-11-09T14:02:53.520Z,15.42
2022-11-09T14:04:22.794Z,15.42
2022-11-09T14:05:43.143Z,15.40
2022-11-09T14:07:03.038Z,15.40
2022-11-09T14:08:25.278Z,15.39
2022-11-09T14:10:03.583Z,15.41
2022-11-09T14:11:23.503Z,15.38
2022-11-09T14:12:54.813Z,15.38
2022-11-09T14:14:34.015Z,15.40
2022-11-09T14:15:54.052Z,15.37
2022-11-09T14:17:13.967Z,15.33
2022-11-09T14:18:33.848Z,15.31
2022-11-09T14:20:18.608Z,15.30
2022-11-09T14:21:52.170Z,15.29
2022-11-09T14:23:16.296Z,15.27
2022-11-09T14:24:37.677Z,15.26
2022-11-09T14:25:57.674Z,15.25
2022-11-09T14:27:19.369Z,15.24
2022-11-09T14:28:39.472Z,15.22
2022-11-09T14:30:00.184Z,15.19
2022-11-09T14:31:24.627Z,15.18
2022-11-09T14:32:48.288Z,15.16
2022-11-09T14:34:14.540Z,15.15
2022-11-09T14:35:35.699Z,15.14
2022-11-09T14:36:56.490Z,15.12